Terminal Aerodrome Forecast
Issued by NWS

Home | Current Version | Previous Version | Text Only | Print | Product List | Glossary On
Versions: 1 2 3 4 5 6 7 8 9 10 11 12 13 14 15 16 17 18 19 20
000
FTUS44 KLZK 242200 AAB
TAFADF
TAF AMD
KADF 242242Z 2423/2518 22008G18KT P6SM VCTS BKN035CB OVC050
      TEMPO 2423/2501 30020G45KT 1SM +TSRA BR OVC020CB
     FM250400 27008G18KT P6SM VCSH BKN040 OVC080
     FM250700 27005KT P6SM SCT050 SCT100
      TEMPO 2509/2513 5SM BR=

USA.gov is the U.S. government's official web portal to all federal, state and local government web resources and services.